Time,TemperatureF,DewpointF,PressureIn,WindDirection,WindDirectionDegrees,WindSpeedMPH,WindSpeedGustMPH,Humidity,HourlyPrecipIn,Conditions,Clouds,dailyrainin,SoftwareType,DateUTC
2013-02-04 00:04:00,22.8,17.6,29.99,SSE,158,0.0,0.0,80,0.00,,,0.00,WUHU21623XXSP,2013-02-04 06:04:00,
2013-02-04 01:04:00,22.8,17.6,29.94,SSE,158,6.5,6.5,80,0.00,,,0.00,WUHU21623XXSP,2013-02-04 07:04:00,
2013-02-04 02:04:00,23.9,18.6,29.91,SSE,158,9.6,9.6,80,0.00,,,0.00,WUHU21623XXSP,2013-02-04 08:04:00,
2013-02-04 03:04:00,24.6,19.6,29.88,SSE,158,7.4,7.4,81,0.00,,,0.00,WUHU21623XXSP,2013-02-04 09:04:00,
2013-02-04 04:04:00,25.5,20.2,29.85,SSE,158,6.7,6.7,80,0.00,,,0.00,WUHU21623XXSP,2013-02-04 10:04:00,
2013-02-04 05:04:00,26.8,21.2,29.82,South,180,13.0,13.0,79,0.00,,,0.00,WUHU21623XXSP,2013-02-04 11:04:00,
2013-02-04 06:04:00,26.4,20.5,29.78,South,180,5.1,5.1,78,0.00,,,0.00,WUHU21623XXSP,2013-02-04 12:04:00,
2013-02-04 07:04:00,26.8,21.2,29.78,SW,225,0.0,0.0,79,0.00,,,0.00,WUHU21623XXSP,2013-02-04 13:04:00,
2013-02-04 08:04:00,28.9,23.5,29.78,SSW,203,0.0,0.0,80,0.00,,,0.00,WUHU21623XXSP,2013-02-04 14:04:00,
2013-02-04 08:44:00,31.1,25.4,29.76,SW,225,0.0,0.0,79,0.00,,,0.00,WUHU21623XXSP,2013-02-04 14:44:00,
2013-02-04 08:49:00,31.6,25.6,29.77,SSW,202,0.0,3.4,78,1.02,,,1.02,WUHU21623XXSP,2013-02-04 14:49:00,
2013-02-04 08:54:00,31.8,26.1,29.77,WSW,247,3.8,8.5,79,1.02,,,1.02,WUHU21623XXSP,2013-02-04 14:54:00,
2013-02-04 08:59:00,32.2,26.1,29.77,WSW,247,0.0,8.5,78,1.02,,,1.02,WUHU21623XXSP,2013-02-04 14:59:00,
2013-02-04 09:04:00,32.7,26.6,29.77,WSW,247,2.5,8.5,78,0.00,,,1.02,WUHU21623XXSP,2013-02-04 15:04:00,
2013-02-04 09:09:00,33.1,26.9,29.77,SW,225,0.0,7.4,78,0.00,,,1.02,WUHU21623XXSP,2013-02-04 15:09:00,
2013-02-04 09:14:00,33.6,27.1,29.77,SW,225,0.0,7.4,77,0.00,,,1.02,WUHU21623XXSP,2013-02-04 15:14:00,
2013-02-04 09:19:00,34.0,27.4,29.77,WSW,247,2.9,6.9,77,0.00,,,1.02,WUHU21623XXSP,2013-02-04 15:19:00,
2013-02-04 09:24:00,34.2,27.6,29.78,WSW,247,0.0,8.9,77,0.00,,,1.02,WUHU21623XXSP,2013-02-04 15:24:00,
2013-02-04 09:29:00,34.3,27.5,29.78,WSW,247,5.6,8.9,76,0.00,,,1.02,WUHU21623XXSP,2013-02-04 15:29:00,
2013-02-04 09:34:00,34.3,27.1,29.78,WSW,247,0.0,7.8,75,0.00,,,1.02,WUHU21623XXSP,2013-02-04 15:34:00,
2013-02-04 09:39:00,34.3,27.1,29.79,WSW,247,2.9,8.7,75,0.00,,,1.02,WUHU21623XXSP,2013-02-04 15:39:00,
2013-02-04 09:44:00,34.3,26.8,29.79,WSW,247,0.0,8.7,74,0.00,,,1.02,WUHU21623XXSP,2013-02-04 15:44:00,
2013-02-04 09:49:00,34.5,27.0,29.79,WSW,247,0.0,4.9,74,0.00,,,1.02,WUHU21623XXSP,2013-02-04 15:49:00,
2013-02-04 10:04:00,35.2,27.8,29.78,WSW,248,0.0,0.0,74,0.00,,,0.00,WUHU21623XXSP,2013-02-04 16:04:00,
2013-02-04 11:04:00,34.3,26.3,29.78,WNW,293,0.0,0.0,72,0.00,,,0.00,WUHU21623XXSP,2013-02-04 17:04:00,
2013-02-04 12:04:00,34.5,26.5,29.77,NNW,338,8.7,8.7,72,0.00,,,0.00,WUHU21623XXSP,2013-02-04 18:04:00,
2013-02-04 13:04:00,35.2,27.1,29.77,NNW,338,5.4,5.4,72,0.00,,,0.00,WUHU21623XXSP,2013-02-04 19:04:00,
2013-02-04 14:04:00,36.3,27.5,29.81,North,0,9.6,9.6,70,0.00,,,0.00,WUHU21623XXSP,2013-02-04 20:04:00,
2013-02-04 14:53:00,34.0,26.1,29.82,NNE,22,0.0,0.0,73,0.00,,,0.00,WUHU21623XXSP,2013-02-04 20:53:00,
2013-02-04 14:58:00,33.6,25.5,29.83,NNE,22,3.8,13.2,72,1.02,,,1.02,WUHU21623XXSP,2013-02-04 20:58:00,
2013-02-04 15:03:00,33.3,25.1,29.82,North,0,0.0,13.2,72,1.02,,,1.02,WUHU21623XXSP,2013-02-04 21:03:00,
2013-02-04 15:08:00,33.1,25.3,29.82,NE,45,7.8,12.1,73,0.00,,,1.02,WUHU21623XXSP,2013-02-04 21:08:00,
2013-02-04 15:13:00,32.9,25.1,29.82,NE,45,4.7,12.3,73,0.00,,,1.02,WUHU21623XXSP,2013-02-04 21:13:00,
2013-02-04 15:18:00,32.7,25.0,29.82,NE,45,3.4,12.3,73,0.00,,,1.02,WUHU21623XXSP,2013-02-04 21:18:00,
2013-02-04 15:24:00,32.5,24.8,29.83,North,0,0.0,10.5,73,0.00,,,1.02,WUHU21623XXSP,2013-02-04 21:24:00,
2013-02-04 15:29:00,32.2,24.5,29.83,NE,45,2.7,13.4,73,0.00,,,1.02,WUHU21623XXSP,2013-02-04 21:29:00,
2013-02-04 15:34:00,31.8,24.2,29.82,NE,45,10.3,13.4,73,0.00,,,1.02,WUHU21623XXSP,2013-02-04 21:34:00,
2013-02-04 15:39:00,31.6,24.0,29.82,NE,45,2.9,13.9,73,0.00,,,1.02,WUHU21623XXSP,2013-02-04 21:39:00,
2013-02-04 15:44:00,31.3,23.9,29.82,NE,45,0.0,13.9,74,0.00,,,1.02,WUHU21623XXSP,2013-02-04 21:44:00,
2013-02-04 15:49:00,31.1,23.8,29.82,NE,45,11.0,13.2,74,0.00,,,1.02,WUHU21623XXSP,2013-02-04 21:49:00,
2013-02-04 15:54:00,30.9,23.6,29.83,NE,45,0.0,13.2,74,0.00,,,1.02,WUHU21623XXSP,2013-02-04 21:54:00,
2013-02-04 15:59:00,30.7,23.7,29.83,NE,45,3.8,13.6,75,0.00,,,1.02,WUHU21623XXSP,2013-02-04 21:59:00,
2013-02-04 16:04:00,30.7,23.7,29.83,NE,45,6.3,13.6,75,0.00,,,1.02,WUHU21623XXSP,2013-02-04 22:04:00,
2013-02-04 16:09:00,30.6,23.5,29.82,NNE,22,10.1,13.2,75,0.00,,,1.02,WUHU21623XXSP,2013-02-04 22:09:00,
2013-02-04 16:14:00,30.4,23.4,29.83,NE,45,7.2,13.2,75,0.00,,,1.02,WUHU21623XXSP,2013-02-04 22:14:00,
2013-02-04 16:19:00,30.2,23.2,29.83,NE,45,5.1,10.7,75,0.00,,,1.02,WUHU21623XXSP,2013-02-04 22:19:00,
2013-02-04 16:24:00,30.4,23.7,29.84,NE,45,7.2,11.4,76,0.00,,,1.02,WUHU21623XXSP,2013-02-04 22:24:00,
2013-02-04 16:29:00,30.2,23.5,29.84,NE,45,4.3,11.4,76,0.00,,,1.02,WUHU21623XXSP,2013-02-04 22:29:00,
2013-02-04 16:34:00,30.0,23.3,29.84,NNE,22,4.3,9.2,76,0.00,,,1.02,WUHU21623XXSP,2013-02-04 22:34:00,
2013-02-04 16:39:00,30.0,23.3,29.84,NE,45,11.6,11.6,76,0.00,,,1.02,WUHU21623XXSP,2013-02-04 22:39:00,
2013-02-04 16:44:00,30.0,23.3,29.84,NNE,22,0.0,11.6,76,0.00,,,1.02,WUHU21623XXSP,2013-02-04 22:44:00,
2013-02-04 16:49:00,30.0,23.3,29.84,ENE,67,5.8,13.6,76,0.00,,,1.02,WUHU21623XXSP,2013-02-04 22:49:00,
2013-02-04 16:54:00,30.0,23.3,29.84,NE,45,8.3,13.6,76,0.00,,,1.02,WUHU21623XXSP,2013-02-04 22:54:00,
2013-02-04 16:59:00,29.8,23.1,29.85,NE,45,4.7,11.9,76,0.00,,,1.02,WUHU21623XXSP,2013-02-04 22:59:00,
2013-02-04 17:04:00,29.8,23.1,29.86,ENE,67,0.0,11.9,76,0.00,,,1.02,WUHU21623XXSP,2013-02-04 23:04:00,
2013-02-04 18:04:00,28.8,23.1,29.89,North,0,2.0,2.0,79,0.00,,,0.00,WUHU21623XXSP,2013-02-05 00:04:00,
2013-02-04 19:04:00,27.3,22.2,29.90,NNE,23,0.0,0.0,81,0.00,,,0.00,WUHU21623XXSP,2013-02-05 01:04:00,
2013-02-04 20:04:00,25.9,20.9,29.91,North,0,2.5,2.5,81,0.00,,,0.00,WUHU21623XXSP,2013-02-05 02:04:00,
2013-02-04 21:04:00,23.9,19.2,29.91,North,0,0.0,0.0,82,0.00,,,0.00,WUHU21623XXSP,2013-02-05 03:04:00,
2013-02-04 21:38:00,22.8,18.1,29.92,NNW,337,11.0,11.0,82,0.00,,,0.00,WUHU21623XXSP,2013-02-05 03:38:00,
2013-02-04 21:43:00,22.6,18.0,29.93,NNW,337,8.5,12.8,82,1.02,,,1.02,WUHU21623XXSP,2013-02-05 03:43:00,
2013-02-04 21:48:00,22.3,17.8,29.92,NNW,337,7.8,13.6,82,1.02,,,1.02,WUHU21623XXSP,2013-02-05 03:48:00,
2013-02-04 21:53:00,22.3,17.6,29.92,North,0,7.4,14.3,82,1.02,,,1.02,WUHU21623XXSP,2013-02-05 03:53:00,
2013-02-04 21:58:00,22.1,17.4,29.92,NNW,337,8.7,14.3,82,1.02,,,1.02,WUHU21623XXSP,2013-02-05 03:58:00,
2013-02-04 22:03:00,21.9,17.2,29.93,NNW,337,3.1,13.0,82,1.02,,,1.02,WUHU21623XXSP,2013-02-05 04:03:00,
2013-02-04 22:08:00,21.9,17.2,29.94,NNW,337,7.4,13.0,82,0.00,,,1.02,WUHU21623XXSP,2013-02-05 04:08:00,
2013-02-04 22:13:00,21.7,17.1,29.94,NNW,337,11.2,14.1,82,0.00,,,1.02,WUHU21623XXSP,2013-02-05 04:13:00,
2013-02-04 22:18:00,21.6,16.9,29.93,NNW,337,3.4,14.1,82,0.00,,,1.02,WUHU21623XXSP,2013-02-05 04:18:00,
2013-02-04 22:23:00,21.4,16.7,29.92,North,0,0.0,11.4,82,0.00,,,1.02,WUHU21623XXSP,2013-02-05 04:23:00,
2013-02-04 22:28:00,21.0,16.3,29.93,NNE,22,4.7,9.2,82,0.00,,,1.02,WUHU21623XXSP,2013-02-05 04:28:00,
2013-02-04 22:33:00,21.0,16.1,29.92,NNE,22,2.5,6.9,81,0.00,,,1.02,WUHU21623XXSP,2013-02-05 04:33:00,
2013-02-04 22:38:00,20.8,15.9,29.92,North,0,0.0,6.9,81,0.00,,,1.02,WUHU21623XXSP,2013-02-05 04:38:00,
2013-02-04 22:43:00,20.8,15.9,29.92,NNW,337,3.8,7.8,81,0.00,,,1.02,WUHU21623XXSP,2013-02-05 04:43:00,
2013-02-04 22:48:00,20.8,15.9,29.93,NNE,22,0.0,7.8,81,0.00,,,1.02,WUHU21623XXSP,2013-02-05 04:48:00,
2013-02-04 22:53:00,20.8,15.9,29.92,NNW,337,3.1,7.6,81,0.00,,,1.02,WUHU21623XXSP,2013-02-05 04:53:00,
2013-02-04 22:58:00,20.5,15.5,29.93,NNW,337,0.0,7.4,81,0.00,,,1.02,WUHU21623XXSP,2013-02-05 04:58:00,
2013-02-04 23:00:00,20.5,15.5,29.93,NNW,337,4.9,7.4,81,0.00,,,1.02,WUHU21623XXSP,2013-02-05 05:00:00,
2013-02-04 23:01:00,20.5,15.5,29.93,North,0,0.0,7.6,81,0.00,,,1.02,WUHU21623XXSP,2013-02-05 05:01:00,
2013-02-04 23:06:00,20.5,15.5,29.93,NNW,337,6.3,7.6,81,0.00,,,1.02,WUHU21623XXSP,2013-02-05 05:06:00,
2013-02-04 23:11:00,20.1,15.2,29.93,NNW,337,8.3,8.3,81,0.00,,,1.02,WUHU21623XXSP,2013-02-05 05:11:00,
2013-02-04 23:16:00,19.9,15.0,29.93,NNW,337,3.8,8.3,81,0.00,,,1.02,WUHU21623XXSP,2013-02-05 05:16:00,